Time;durP1;ratioP1;P1;durP2;ratioP2;P2;SDS_P1;SDS_P2;PMS_P1;PMS_P2;Temp;Humidity;BMP_temperature;BMP_pressure;BME280_temperature;BME280_humidity;BME280_pressure;Samples;Min_cycle;Max_cycle;Signal;HPM_P1;HPM_P2
2021/05/26 00:01:25;;;;;;;4.88;1.90;;;10.60;87.40;;;;;;5078405;28;20488;-78
2021/05/26 00:03:51;;;;;;;5.20;1.90;;;10.70;87.10;;;;;;5115857;28;20034;-78
2021/05/26 00:06:17;;;;;;;8.63;2.10;;;10.70;87.20;;;;;;5086185;28;20028;-78
2021/05/26 00:08:43;;;;;;;10.82;2.35;;;10.80;87.30;;;;;;5068853;28;20035;-78
2021/05/26 00:11:12;;;;;;;7.50;2.47;;;10.70;87.40;;;;;;5105984;28;20028;-78
2021/05/26 00:13:38;;;;;;;6.43;2.10;;;10.80;87.50;;;;;;5115170;28;20031;-78
2021/05/26 00:16:05;;;;;;;7.40;2.30;;;10.80;87.50;;;;;;5112369;28;20042;-78
2021/05/26 00:18:32;;;;;;;6.07;2.05;;;10.80;87.50;;;;;;5092352;28;20065;-78
2021/05/26 00:20:58;;;;;;;16.75;2.60;;;10.80;87.50;;;;;;5097707;28;20028;-78
2021/05/26 00:23:24;;;;;;;9.18;2.40;;;10.80;87.50;;;;;;5097184;28;20024;-78
2021/05/26 00:25:50;;;;;;;9.13;2.25;;;10.80;87.60;;;;;;5093574;28;20032;-78
2021/05/26 00:28:16;;;;;;;9.63;2.55;;;10.80;87.70;;;;;;5096857;28;20020;-78
2021/05/26 00:30:48;;;;;;;6.40;2.00;;;10.80;87.80;;;;;;5115480;28;20039;-78
2021/05/26 00:33:14;;;;;;;13.02;2.53;;;10.90;87.90;;;;;;5104780;28;20145;-78
2021/05/26 00:35:39;;;;;;;11.77;2.85;;;10.90;87.80;;;;;;5097050;28;20074;-78
2021/05/26 00:38:05;;;;;;;8.40;2.90;;;10.90;87.80;;;;;;5115311;28;20015;-79
2021/05/26 00:40:31;;;;;;;11.45;3.30;;;10.90;88.00;;;;;;5097165;28;20019;-79
2021/05/26 00:42:57;;;;;;;11.50;2.83;;;11.00;88.00;;;;;;5096306;28;20048;-79
2021/05/26 00:45:23;;;;;;;8.63;2.35;;;11.00;88.00;;;;;;5096666;28;20510;-79
2021/05/26 00:47:50;;;;;;;13.05;2.95;;;11.00;88.00;;;;;;5115036;28;20035;-78
2021/05/26 00:50:25;;;;;;;11.02;2.75;;;11.00;87.80;;;;;;5107296;28;20020;-78
2021/05/26 00:52:52;;;;;;;8.00;2.92;;;11.00;87.80;;;;;;5114983;28;20081;-78
2021/05/26 00:55:20;;;;;;;10.63;2.80;;;11.00;87.90;;;;;;5096987;28;20361;-78
2021/05/26 00:57:48;;;;;;;15.20;2.88;;;11.00;88.00;;;;;;5109144;28;20412;-78
2021/05/26 01:00:17;;;;;;;13.57;3.53;;;11.00;88.10;;;;;;5088080;28;20028;-78
2021/05/26 01:02:44;;;;;;;13.52;3.30;;;11.00;87.90;;;;;;5114834;28;20028;-78
2021/05/26 01:05:11;;;;;;;13.38;2.92;;;11.00;87.80;;;;;;5096334;28;20028;-78
2021/05/26 01:07:38;;;;;;;12.38;3.08;;;11.00;87.80;;;;;;5114803;28;20015;-78
2021/05/26 01:10:05;;;;;;;17.25;3.63;;;11.00;87.80;;;;;;5080137;28;20053;-78
2021/05/26 01:12:30;;;;;;;11.90;2.97;;;11.00;87.80;;;;;;5114953;28;20076;-78
2021/05/26 01:14:56;;;;;;;19.55;3.92;;;11.00;87.90;;;;;;5113345;28;20031;-78
2021/05/26 01:17:22;;;;;;;10.38;3.25;;;11.00;88.00;;;;;;5106947;28;20480;-78
2021/05/26 01:19:47;;;;;;;8.88;3.58;;;10.90;87.80;;;;;;5059611;28;20449;-78
2021/05/26 01:22:13;;;;;;;13.35;3.50;;;10.90;87.90;;;;;;5094126;28;20032;-78
2021/05/26 01:24:39;;;;;;;15.73;3.55;;;10.90;88.00;;;;;;5070013;28;20023;-78
2021/05/26 01:27:05;;;;;;;14.32;3.80;;;10.90;88.10;;;;;;5095579;28;20110;-78
2021/05/26 01:29:31;;;;;;;18.45;3.50;;;10.90;88.20;;;;;;5114419;28;20024;-78
2021/05/26 01:31:58;;;;;;;12.85;3.40;;;10.90;88.20;;;;;;5114099;28;20089;-78
2021/05/26 01:34:24;;;;;;;15.88;3.60;;;10.90;88.20;;;;;;5112206;28;20035;-78
2021/05/26 01:36:50;;;;;;;19.90;4.47;;;10.90;88.30;;;;;;5094900;28;20032;-78
2021/05/26 01:39:17;;;;;;;14.63;3.85;;;10.80;88.10;;;;;;5111061;28;20035;-78
2021/05/26 01:41:43;;;;;;;15.27;3.95;;;10.80;88.20;;;;;;5092358;28;20081;-78
2021/05/26 01:44:09;;;;;;;13.27;3.45;;;10.80;88.30;;;;;;5094323;28;20430;-78
2021/05/26 01:46:40;;;;;;;14.05;3.63;;;10.80;88.40;;;;;;5095244;28;20051;-78
2021/05/26 01:49:07;;;;;;;19.73;4.20;;;10.80;88.40;;;;;;5095429;28;20388;-78
2021/05/26 01:51:33;;;;;;;12.15;4.05;;;10.80;88.30;;;;;;5095702;28;20087;-78
2021/05/26 01:53:59;;;;;;;15.40;4.32;;;10.70;88.20;;;;;;5113898;28;20027;-78
2021/05/26 01:56:27;;;;;;;15.55;4.82;;;10.70;88.10;;;;;;5095622;28;20032;-78
2021/05/26 01:58:55;;;;;;;15.57;3.50;;;10.60;88.20;;;;;;5096054;28;20032;-78
2021/05/26 02:01:24;;;;;;;13.80;4.15;;;10.60;88.20;;;;;;5095675;28;20070;-78
2021/05/26 02:03:51;;;;;;;19.00;4.68;;;10.60;88.20;;;;;;5095534;28;20024;-78
2021/05/26 02:06:18;;;;;;;15.38;4.15;;;10.50;88.20;;;;;;5113611;28;20028;-78
2021/05/26 02:08:47;;;;;;;15.05;4.35;;;10.50;88.30;;;;;;5075423;28;20404;-78
2021/05/26 02:14:02;;;;;;;26.48;4.15;;;10.50;88.40;;;;;;5098014;28;20034;-78
2021/05/26 02:16:28;;;;;;;16.80;4.80;;;10.50;88.50;;;;;;5092285;28;20027;-78
2021/05/26 02:18:54;;;;;;;17.48;4.45;;;10.40;88.50;;;;;;5099553;28;20114;-78
2021/05/26 02:21:20;;;;;;;14.27;3.90;;;10.40;88.50;;;;;;5095060;28;20031;-78
2021/05/26 02:23:45;;;;;;;16.13;4.53;;;10.40;88.50;;;;;;5094913;28;20552;-78
2021/05/26 02:26:11;;;;;;;15.77;3.97;;;10.40;88.50;;;;;;5095277;28;20032;-78
2021/05/26 02:28:37;;;;;;;11.52;3.83;;;10.30;88.40;;;;;;5113301;28;20040;-78
2021/05/26 02:31:02;;;;;;;12.60;4.20;;;10.30;88.50;;;;;;5095222;28;20024;-78
2021/05/26 02:33:28;;;;;;;11.10;3.70;;;10.30;88.50;;;;;;5093777;28;20023;-78
2021/05/26 02:35:53;;;;;;;13.63;4.00;;;10.30;88.40;;;;;;5111559;28;20479;-78
2021/05/26 02:38:19;;;;;;;14.77;4.30;;;10.20;88.20;;;;;;5091507;28;20031;-78
2021/05/26 02:40:45;;;;;;;12.75;3.90;;;10.20;88.20;;;;;;5094809;28;20034;-78
2021/05/26 02:43:11;;;;;;;13.30;3.47;;;10.20;88.20;;;;;;5094539;28;20055;-78
2021/05/26 02:45:37;;;;;;;11.85;3.53;;;10.20;88.20;;;;;;5094943;28;20115;-78
2021/05/26 02:48:04;;;;;;;15.48;3.83;;;10.10;88.30;;;;;;5113147;28;20024;-78
2021/05/26 02:50:29;;;;;;;19.58;4.25;;;10.10;88.40;;;;;;5113089;28;20020;-78
2021/05/26 02:52:55;;;;;;;14.63;4.03;;;10.10;88.50;;;;;;5094262;28;20027;-78
2021/05/26 02:55:22;;;;;;;12.68;4.05;;;10.10;88.50;;;;;;5087606;28;20432;-78
2021/05/26 02:57:48;;;;;;;15.80;4.25;;;10.10;88.60;;;;;;5113073;28;20031;-78
2021/05/26 03:00:18;;;;;;;12.57;3.35;;;10.10;88.60;;;;;;5086316;28;20028;-78
2021/05/26 03:02:44;;;;;;;14.13;4.15;;;10.20;88.70;;;;;;5111119;28;20038;-78
2021/05/26 03:05:12;;;;;;;12.70;3.60;;;10.20;88.70;;;;;;5108699;28;20035;-77
2021/05/26 03:07:38;;;;;;;15.40;4.10;;;10.20;88.70;;;;;;5094432;28;20032;-78
2021/05/26 03:10:06;;;;;;;15.20;4.05;;;10.30;88.70;;;;;;5112808;28;20024;-78
2021/05/26 03:12:31;;;;;;;15.32;4.38;;;10.20;88.70;;;;;;5113066;28;20036;-78
2021/05/26 03:14:57;;;;;;;14.40;4.20;;;10.20;88.70;;;;;;5094391;28;20169;-78
2021/05/26 03:17:27;;;;;;;18.70;4.75;;;10.20;88.60;;;;;;5088800;28;20033;-78
2021/05/26 03:19:53;;;;;;;10.18;4.22;;;10.20;88.60;;;;;;5081546;28;20614;-77
2021/05/26 03:22:19;;;;;;;15.00;3.90;;;10.20;88.70;;;;;;5106030;28;21808;-78
2021/05/26 03:24:45;;;;;;;17.00;4.25;;;10.20;88.80;;;;;;5094742;28;20032;-78
2021/05/26 03:27:10;;;;;;;14.75;4.10;;;10.20;88.80;;;;;;5094636;28;20031;-78
2021/05/26 03:29:36;;;;;;;14.10;4.57;;;10.10;88.80;;;;;;5084185;28;20031;-78
2021/05/26 03:32:02;;;;;;;13.65;4.20;;;10.10;88.90;;;;;;5063369;28;21597;-78
2021/05/26 03:34:28;;;;;;;16.05;4.20;;;10.10;89.10;;;;;;5112840;28;20492;-78
2021/05/26 03:36:53;;;;;;;16.05;4.15;;;10.10;89.20;;;;;;5077723;28;20036;-78
2021/05/26 03:39:19;;;;;;;15.23;4.45;;;10.20;89.30;;;;;;5098522;28;20103;-77
2021/05/26 03:41:44;;;;;;;13.45;4.13;;;10.20;89.40;;;;;;5112519;28;20701;-78
2021/05/26 03:44:10;;;;;;;10.43;4.43;;;10.20;89.50;;;;;;5094192;28;20532;-78
2021/05/26 03:46:36;;;;;;;12.02;3.92;;;10.20;89.60;;;;;;5094669;28;20027;-78
2021/05/26 03:49:04;;;;;;;15.32;4.15;;;10.30;89.70;;;;;;5110948;28;20051;-78
2021/05/26 03:51:30;;;;;;;14.95;4.43;;;10.30;89.80;;;;;;5086805;28;20024;-78
2021/05/26 03:53:56;;;;;;;13.25;4.35;;;10.40;89.80;;;;;;5097892;28;20038;-78
2021/05/26 03:56:22;;;;;;;13.52;4.03;;;10.40;89.80;;;;;;5097724;28;20109;-78
2021/05/26 03:58:48;;;;;;;13.02;4.28;;;10.40;89.80;;;;;;5115265;28;20036;-78
2021/05/26 04:01:14;;;;;;;13.77;3.88;;;10.40;89.70;;;;;;5115854;28;20050;-78
2021/05/26 04:03:39;;;;;;;12.40;4.32;;;10.50;89.60;;;;;;5098083;28;20028;-78
2021/05/26 04:06:05;;;;;;;14.07;4.13;;;10.50;89.60;;;;;;5115856;28;20019;-78
2021/05/26 04:08:30;;;;;;;11.93;4.15;;;10.50;89.60;;;;;;5097669;28;20073;-78
2021/05/26 04:10:56;;;;;;;13.50;4.30;;;10.50;89.60;;;;;;5087065;28;20028;-78
2021/05/26 04:13:22;;;;;;;11.88;3.95;;;10.50;89.60;;;;;;5115217;28;20420;-78
2021/05/26 04:15:48;;;;;;;9.07;4.05;;;10.60;89.60;;;;;;5111985;28;20030;-78
2021/05/26 04:18:13;;;;;;;14.10;5.10;;;10.60;89.50;;;;;;5109658;28;20030;-78
2021/05/26 04:20:39;;;;;;;14.55;4.70;;;10.60;89.50;;;;;;5096812;28;20027;-78
2021/05/26 04:23:05;;;;;;;15.32;4.70;;;10.60;89.30;;;;;;5105851;28;20032;-79
2021/05/26 04:25:31;;;;;;;9.93;4.57;;;10.60;89.30;;;;;;5106543;28;20090;-78
2021/05/26 04:27:57;;;;;;;14.60;3.90;;;10.60;89.30;;;;;;5112247;28;20028;-78
2021/05/26 04:30:23;;;;;;;12.00;4.50;;;10.60;89.40;;;;;;5078424;28;20024;-78
2021/05/26 04:32:49;;;;;;;11.35;4.70;;;10.70;89.50;;;;;;5091334;28;20078;-78
2021/05/26 04:35:16;;;;;;;15.88;4.72;;;10.70;89.60;;;;;;5096745;28;20036;-78
2021/05/26 04:37:42;;;;;;;14.45;4.53;;;10.70;89.60;;;;;;5114048;28;20077;-78
2021/05/26 04:40:08;;;;;;;15.35;5.57;;;10.70;89.60;;;;;;5115341;28;20027;-78
2021/05/26 04:42:33;;;;;;;15.32;4.95;;;10.70;89.50;;;;;;5093434;28;20422;-78
2021/05/26 04:44:59;;;;;;;12.43;4.30;;;10.70;89.40;;;;;;5097331;28;20027;-78
2021/05/26 04:47:25;;;;;;;11.43;4.47;;;10.80;89.40;;;;;;5074961;28;20408;-78
2021/05/26 04:49:50;;;;;;;15.90;5.22;;;10.80;89.30;;;;;;5099542;28;20028;-78
2021/05/26 04:52:16;;;;;;;12.73;4.57;;;10.80;89.20;;;;;;5095699;28;20045;-78
2021/05/26 04:54:42;;;;;;;15.52;5.13;;;10.90;89.10;;;;;;5112799;28;20460;-78
2021/05/26 04:57:07;;;;;;;11.20;4.35;;;10.90;89.00;;;;;;5071955;28;20040;-78
2021/05/26 04:59:33;;;;;;;10.40;4.00;;;10.90;89.00;;;;;;5094499;28;20055;-78
2021/05/26 05:01:59;;;;;;;13.52;3.97;;;11.00;89.10;;;;;;5109537;28;20102;-78
2021/05/26 05:04:24;;;;;;;13.20;3.72;;;11.00;89.00;;;;;;5105710;28;20028;-78
2021/05/26 05:06:50;;;;;;;10.50;3.47;;;11.10;88.90;;;;;;5096194;28;20031;-77
2021/05/26 05:09:15;;;;;;;8.80;3.30;;;11.10;88.70;;;;;;5093935;28;20533;-79
2021/05/26 05:11:41;;;;;;;11.10;3.50;;;11.10;88.70;;;;;;5096348;28;20122;-78
2021/05/26 05:14:07;;;;;;;12.88;3.95;;;11.20;88.50;;;;;;5076224;28;20047;-78
2021/05/26 05:16:32;;;;;;;10.18;2.97;;;11.20;88.20;;;;;;5091929;28;20019;-77
2021/05/26 05:18:58;;;;;;;10.50;2.97;;;11.20;88.20;;;;;;5111952;28;20032;-77
2021/05/26 05:21:24;;;;;;;8.30;3.22;;;11.30;88.00;;;;;;5097583;28;20039;-77
2021/05/26 05:23:50;;;;;;;10.77;3.35;;;11.30;87.80;;;;;;5080907;28;20051;-77
2021/05/26 05:26:16;;;;;;;8.30;3.08;;;11.30;87.70;;;;;;5076194;28;20027;-77
2021/05/26 05:28:42;;;;;;;6.70;2.53;;;11.30;87.70;;;;;;5095750;28;20040;-77
2021/05/26 05:31:07;;;;;;;7.50;3.00;;;11.30;87.70;;;;;;5094236;28;20028;-77
2021/05/26 05:33:33;;;;;;;6.80;2.90;;;11.40;88.30;;;;;;5092027;28;20488;-77
2021/05/26 05:35:59;;;;;;;6.90;3.15;;;11.60;87.40;;;;;;5086203;28;20388;-77
2021/05/26 05:38:24;;;;;;;9.93;2.80;;;11.70;87.30;;;;;;5106832;28;20035;-77
2021/05/26 05:40:50;;;;;;;8.13;2.95;;;11.80;86.80;;;;;;5114849;28;20028;-77
2021/05/26 05:43:16;;;;;;;8.32;2.58;;;11.90;86.30;;;;;;5096246;28;20507;-78
2021/05/26 05:45:42;;;;;;;7.18;2.60;;;11.90;86.10;;;;;;5092912;28;20032;-77
2021/05/26 05:48:09;;;;;;;7.32;2.78;;;11.90;85.70;;;;;;5096242;28;20449;-77
2021/05/26 05:50:35;;;;;;;6.85;2.63;;;11.90;86.00;;;;;;5096663;28;20024;-77
2021/05/26 05:53:01;;;;;;;6.40;2.60;;;11.80;86.20;;;;;;5114621;28;20058;-77
2021/05/26 05:55:26;;;;;;;8.73;2.30;;;11.80;86.00;;;;;;5114393;28;20067;-77
2021/05/26 05:57:53;;;;;;;6.32;2.35;;;11.80;85.90;;;;;;5070469;28;20036;-77
2021/05/26 06:00:19;;;;;;;9.13;2.60;;;11.80;86.00;;;;;;5062278;28;20032;-77
2021/05/26 06:02:46;;;;;;;7.30;3.33;;;11.90;86.10;;;;;;5105646;28;20069;-73
2021/05/26 06:05:13;;;;;;;10.23;2.65;;;11.90;85.90;;;;;;5078969;28;20028;-73
2021/05/26 06:07:39;;;;;;;7.75;2.38;;;12.00;85.70;;;;;;5076608;28;20024;-73
2021/05/26 06:10:05;;;;;;;6.45;2.88;;;12.10;85.60;;;;;;5093745;28;20073;-73
2021/05/26 06:12:30;;;;;;;4.43;2.58;;;12.20;85.60;;;;;;5092796;28;20388;-73
2021/05/26 06:14:56;;;;;;;8.98;3.03;;;12.30;85.50;;;;;;5080198;28;20032;-73
2021/05/26 06:17:22;;;;;;;6.22;3.00;;;12.40;85.10;;;;;;5093210;28;20040;-73
2021/05/26 06:19:47;;;;;;;6.70;3.03;;;12.40;84.20;;;;;;5108682;28;20428;-74
2021/05/26 06:22:13;;;;;;;9.18;2.50;;;12.50;82.90;;;;;;5058451;28;20042;-74
2021/05/26 06:24:39;;;;;;;7.28;2.72;;;12.60;83.40;;;;;;5075008;28;20491;-74
2021/05/26 06:27:05;;;;;;;8.40;2.95;;;12.60;83.90;;;;;;5107009;28;20055;-74
2021/05/26 06:29:31;;;;;;;7.78;2.85;;;12.60;82.90;;;;;;5052549;28;20115;-74
2021/05/26 06:31:56;;;;;;;6.78;2.83;;;12.60;83.20;;;;;;5093167;28;20116;-84
2021/05/26 06:34:22;;;;;;;5.80;2.80;;;12.70;83.10;;;;;;5083055;28;20442;-85
2021/05/26 06:36:48;;;;;;;8.38;2.80;;;12.70;82.20;;;;;;5078802;28;20091;-89
2021/05/26 06:39:13;;;;;;;5.65;2.40;;;12.70;81.90;;;;;;5101373;28;20036;-78
2021/05/26 06:41:39;;;;;;;5.95;2.60;;;12.80;82.10;;;;;;5082666;28;20102;-78
2021/05/26 06:44:05;;;;;;;6.00;2.60;;;12.90;81.50;;;;;;5078187;28;20050;-77
2021/05/26 06:46:30;;;;;;;6.35;2.20;;;13.00;81.50;;;;;;5095568;28;20132;-78
2021/05/26 06:48:56;;;;;;;7.05;2.25;;;12.90;80.70;;;;;;5095623;28;20019;-78
2021/05/26 06:51:21;;;;;;;4.43;2.13;;;12.90;80.70;;;;;;5106226;28;20475;-78
2021/05/26 06:53:47;;;;;;;5.70;2.50;;;12.80;81.00;;;;;;5076984;28;20046;-77
2021/05/26 06:56:13;;;;;;;6.68;2.80;;;12.80;81.40;;;;;;5108815;28;20036;-77
2021/05/26 06:58:39;;;;;;;4.80;2.55;;;12.70;81.70;;;;;;5111163;28;20043;-78
2021/05/26 07:01:06;;;;;;;5.00;2.40;;;12.70;82.00;;;;;;5075094;28;20114;-78
2021/05/26 07:03:31;;;;;;;4.70;2.67;;;12.60;82.50;;;;;;5111459;28;20543;-77
2021/05/26 07:05:57;;;;;;;5.78;2.83;;;12.60;82.20;;;;;;5075152;28;20115;-78
2021/05/26 07:08:23;;;;;;;6.88;2.58;;;12.60;82.30;;;;;;5096575;28;20027;-79
2021/05/26 07:10:48;;;;;;;5.72;2.50;;;12.70;82.00;;;;;;5075319;28;20111;-80
2021/05/26 07:13:14;;;;;;;5.82;2.05;;;12.90;81.30;;;;;;5113312;28;20035;-79
2021/05/26 07:15:40;;;;;;;2.83;2.10;;;13.00;80.40;;;;;;5089722;28;20077;-79
2021/05/26 07:18:07;;;;;;;6.00;2.20;;;13.00;80.10;;;;;;5091998;28;20035;-79
2021/05/26 07:20:33;;;;;;;3.42;1.80;;;13.00;80.60;;;;;;5085921;28;20051;-80
2021/05/26 07:23:00;;;;;;;5.28;2.00;;;13.00;80.40;;;;;;5080384;28;20031;-79
2021/05/26 07:25:27;;;;;;;7.47;2.10;;;12.90;80.50;;;;;;5096435;28;20028;-79
2021/05/26 07:27:53;;;;;;;4.18;2.00;;;13.00;80.70;;;;;;5103326;28;20535;-79
2021/05/26 07:30:20;;;;;;;5.93;1.85;;;13.20;79.50;;;;;;5099348;28;20038;-79
2021/05/26 07:32:46;;;;;;;3.63;1.90;;;13.40;78.70;;;;;;5111410;28;20024;-79
2021/05/26 07:35:13;;;;;;;6.50;1.73;;;13.40;77.80;;;;;;5105794;28;20475;-80
2021/05/26 07:37:39;;;;;;;2.85;1.70;;;13.40;77.80;;;;;;5113728;28;20384;-80
2021/05/26 07:40:10;;;;;;;3.40;1.55;;;13.50;78.00;;;;;;5117358;28;20505;-80
2021/05/26 07:42:36;;;;;;;2.03;1.45;;;13.80;77.80;;;;;;5082127;28;20090;-79
2021/05/26 07:45:02;;;;;;;2.72;1.40;;;14.00;76.80;;;;;;5081270;28;20047;-79
2021/05/26 07:47:28;;;;;;;2.88;1.48;;;14.00;76.40;;;;;;5110090;28;20050;-79
2021/05/26 07:49:53;;;;;;;2.45;1.33;;;14.00;76.70;;;;;;5099846;28;20038;-79
2021/05/26 07:52:20;;;;;;;4.30;1.73;;;14.00;76.40;;;;;;5045133;28;20050;-79
2021/05/26 07:54:49;;;;;;;2.40;1.75;;;14.10;75.60;;;;;;5072762;28;20086;-79
2021/05/26 07:57:16;;;;;;;2.10;1.40;;;14.30;75.10;;;;;;5077756;28;20496;-79
2021/05/26 07:59:42;;;;;;;2.95;1.48;;;14.60;73.70;;;;;;5096300;28;20067;-79
2021/05/26 08:02:10;;;;;;;3.97;1.30;;;14.70;73.00;;;;;;5086962;28;20032;-77
2021/05/26 08:04:36;;;;;;;2.90;1.23;;;14.90;72.00;;;;;;5109425;28;20537;-76
2021/05/26 08:07:02;;;;;;;2.20;1.20;;;15.00;70.80;;;;;;5085476;28;20024;-79
2021/05/26 08:09:27;;;;;;;2.60;1.33;;;15.00;70.10;;;;;;5060781;28;20035;-79
2021/05/26 08:11:53;;;;;;;2.00;1.10;;;14.90;71.40;;;;;;5100286;28;20080;-79
2021/05/26 08:14:18;;;;;;;3.22;1.08;;;14.90;71.40;;;;;;5097937;28;20480;-80
2021/05/26 08:16:44;;;;;;;2.28;1.10;;;14.90;70.90;;;;;;5097347;28;20477;-76
2021/05/26 08:19:10;;;;;;;0.93;0.77;;;15.20;71.20;;;;;;5101780;28;20031;-73
2021/05/26 08:21:37;;;;;;;4.30;1.05;;;15.30;69.70;;;;;;5098151;28;20111;-82
2021/05/26 08:24:03;;;;;;;3.53;1.45;;;15.60;69.70;;;;;;5098128;28;20486;-85
2021/05/26 08:26:29;;;;;;;2.83;1.20;;;15.90;69.00;;;;;;5116444;28;20514;-84
2021/05/26 08:28:54;;;;;;;1.60;1.00;;;16.20;67.60;;;;;;5081161;28;20024;-84
2021/05/26 08:31:20;;;;;;;4.13;1.20;;;16.30;66.50;;;;;;5097951;28;20024;-82
2021/05/26 08:33:47;;;;;;;4.68;1.17;;;16.10;67.10;;;;;;5116191;28;20024;-82
2021/05/26 08:36:12;;;;;;;2.90;1.25;;;15.80;67.80;;;;;;5115836;28;20076;-82
2021/05/26 08:38:39;;;;;;;2.75;1.25;;;15.50;67.80;;;;;;5116082;28;20015;-82
2021/05/26 08:41:10;;;;;;;1.20;0.80;;;15.30;68.40;;;;;;5116111;28;20552;-82
2021/05/26 08:43:40;;;;;;;4.38;0.93;;;15.50;68.80;;;;;;5115741;28;20048;-81
2021/05/26 08:46:06;;;;;;;2.13;1.00;;;15.80;67.90;;;;;;5116077;28;20024;-82
2021/05/26 08:48:33;;;;;;;3.50;0.90;;;16.10;65.50;;;;;;5116002;28;20019;-81
2021/05/26 08:51:00;;;;;;;2.88;1.25;;;16.30;64.30;;;;;;5080714;28;20028;-82
2021/05/26 08:53:27;;;;;;;2.88;0.90;;;16.50;64.70;;;;;;5115806;28;20035;-81
2021/05/26 08:55:53;;;;;;;1.35;0.90;;;16.70;62.80;;;;;;5097531;28;20107;-81
2021/05/26 08:58:19;;;;;;;1.65;0.70;;;16.80;62.80;;;;;;5109007;28;20544;-82
2021/05/26 09:00:45;;;;;;;7.80;2.03;;;16.70;63.30;;;;;;5077146;28;20500;-81
2021/05/26 09:03:11;;;;;;;3.10;0.98;;;16.50;64.60;;;;;;5095101;28;20020;-81
2021/05/26 09:05:37;;;;;;;2.80;0.90;;;16.60;64.40;;;;;;5103846;28;20501;-81
2021/05/26 09:08:15;;;;;;;2.47;0.82;;;16.80;62.90;;;;;;5097643;28;20383;-81
2021/05/26 09:10:56;;;;;;;2.55;0.77;;;17.00;62.70;;;;;;5111093;28;20032;-77
2021/05/26 09:13:27;;;;;;;1.67;1.00;;;17.40;60.70;;;;;;5095017;28;20102;-77
2021/05/26 09:15:53;;;;;;;2.75;1.33;;;17.60;60.20;;;;;;5094915;28;20032;-77
2021/05/26 09:18:19;;;;;;;2.97;0.90;;;17.50;59.30;;;;;;5099498;28;20028;-77
2021/05/26 09:20:46;;;;;;;2.78;0.80;;;17.10;61.20;;;;;;5094655;28;20039;-77
2021/05/26 09:23:17;;;;;;;3.85;0.80;;;16.80;63.20;;;;;;5104098;28;20023;-77
2021/05/26 09:25:45;;;;;;;1.35;0.70;;;16.70;63.60;;;;;;5113299;28;20548;-77
2021/05/26 09:28:34;;;;;;;2.13;0.65;;;16.90;62.40;;;;;;5090462;28;20581;-72
2021/05/26 09:31:09;;;;;;;0.93;0.85;;;17.30;60.90;;;;;;5093665;28;20020;-72
2021/05/26 09:33:47;;;;;;;1.35;0.77;;;17.40;60.30;;;;;;5077190;28;20058;-72
2021/05/26 09:36:16;;;;;;;1.58;0.70;;;17.20;60.80;;;;;;5098647;28;20089;-75
2021/05/26 09:38:56;;;;;;;1.40;0.77;;;17.00;61.30;;;;;;5082054;28;20364;-72
2021/05/26 09:41:26;;;;;;;3.03;0.90;;;17.00;61.90;;;;;;5096223;28;20489;-73
2021/05/26 09:43:58;;;;;;;1.77;0.90;;;17.00;61.90;;;;;;5074961;28;20032;-73
2021/05/26 09:46:26;;;;;;;3.33;1.00;;;16.90;61.80;;;;;;5098002;28;20047;-74
2021/05/26 09:49:17;;;;;;;1.85;0.90;;;16.70;61.30;;;;;;5078751;28;20040;-73
2021/05/26 09:51:57;;;;;;;1.77;0.80;;;16.80;63.80;;;;;;5094965;28;20024;-73
2021/05/26 09:54:27;;;;;;;2.03;0.80;;;17.10;63.00;;;;;;5096108;28;20494;-72
2021/05/26 09:56:54;;;;;;;1.33;0.85;;;17.20;62.20;;;;;;5092331;28;20028;-72
2021/05/26 09:59:22;;;;;;;2.75;1.00;;;17.10;61.20;;;;;;5094115;28;20077;-72
2021/05/26 10:01:53;;;;;;;1.73;0.70;;;16.90;62.40;;;;;;5074483;28;20034;-72
2021/05/26 10:04:19;;;;;;;1.65;0.77;;;16.70;63.70;;;;;;5062231;28;20020;-72
2021/05/26 10:06:46;;;;;;;2.17;1.00;;;16.80;62.90;;;;;;5071256;28;20030;-72
2021/05/26 10:09:13;;;;;;;2.22;1.00;;;17.00;62.00;;;;;;5093766;28;20032;-72
2021/05/26 10:11:39;;;;;;;2.33;0.98;;;17.00;62.10;;;;;;5093981;28;20028;-74
2021/05/26 10:14:12;;;;;;;3.28;0.93;;;16.90;62.70;;;;;;5091954;28;20058;-72
2021/05/26 10:16:42;;;;;;;1.73;0.90;;;17.00;64.00;;;;;;5078540;28;20103;-72
2021/05/26 10:19:08;;;;;;;2.63;1.05;;;17.40;62.90;;;;;;5076411;28;20051;-73
2021/05/26 10:21:35;;;;;;;3.05;1.00;;;17.80;60.90;;;;;;5073999;28;20043;-72
2021/05/26 10:24:05;;;;;;;1.80;0.90;;;17.80;60.00;;;;;;5076159;28;20106;-72
2021/05/26 10:26:50;;;;;;;2.25;1.05;;;17.60;59.90;;;;;;5101382;28;20115;-72
2021/05/26 10:29:30;;;;;;;2.53;1.10;;;17.20;60.50;;;;;;5073670;28;20120;-72
2021/05/26 10:31:57;;;;;;;3.50;1.38;;;17.00;60.70;;;;;;5091337;28;20028;-73
2021/05/26 10:34:46;;;;;;;3.28;1.38;;;16.90;62.20;;;;;;5093507;28;20023;-73
2021/05/26 10:37:14;;;;;;;1.63;1.02;;;16.90;62.50;;;;;;5095560;28;20106;-72
2021/05/26 10:39:40;;;;;;;2.58;1.00;;;16.90;62.30;;;;;;5078139;28;20118;-72
2021/05/26 10:42:27;;;;;;;3.33;1.25;;;16.80;61.50;;;;;;5075233;28;20118;-73
2021/05/26 10:45:06;;;;;;;3.50;1.20;;;16.70;61.20;;;;;;5089856;28;20040;-72
2021/05/26 10:47:38;;;;;;;;;;;16.50;61.90;;;;;;5093286;28;20032;-72
2021/05/26 10:50:28;;;;;;;5.20;1.33;;;16.40;62.50;;;;;;5079276;28;19919;-72
2021/05/26 10:52:57;;;;;;;5.63;1.63;;;16.20;63.70;;;;;;5078986;28;20036;-72
2021/05/26 10:55:35;;;;;;;;;;;16.10;64.50;;;;;;5077036;28;20026;-72
2021/05/26 10:58:25;;;;;;;6.93;1.98;;;16.10;64.80;;;;;;5094106;28;20356;-76
2021/05/26 11:01:00;;;;;;;3.97;1.90;;;16.00;64.40;;;;;;5081461;28;20081;-75
2021/05/26 11:03:26;;;;;;;5.82;2.22;;;15.90;65.10;;;;;;5079508;28;20413;-75
2021/05/26 11:06:01;;;;;;;4.38;2.13;;;15.90;65.40;;;;;;5095806;28;20549;-75
2021/05/26 11:08:31;;;;;;;6.05;2.20;;;15.80;66.00;;;;;;5099964;28;20464;-75
2021/05/26 11:10:58;;;;;;;4.53;1.88;;;15.80;66.00;;;;;;5079662;28;20028;-75
2021/05/26 11:13:23;;;;;;;3.90;1.92;;;15.80;65.40;;;;;;5075702;28;20036;-75
2021/05/26 11:15:58;;;;;;;2.65;1.40;;;15.80;65.80;;;;;;5099764;28;20027;-75
2021/05/26 11:20:53;;;;;;;5.53;2.17;;;16.20;65.80;;;;;;5096054;28;20028;-75
2021/05/26 11:23:18;;;;;;;4.07;2.20;;;16.70;64.70;;;;;;5077524;28;20081;-75
2021/05/26 11:25:52;;;;;;;4.50;2.10;;;17.00;63.40;;;;;;5064256;28;20542;-75
2021/05/26 11:28:37;;;;;;;3.50;2.33;;;17.10;63.00;;;;;;5100901;28;20354;-75
2021/05/26 11:31:08;;;;;;;6.00;2.40;;;17.20;61.90;;;;;;5105211;28;20015;-75
2021/05/26 11:33:35;;;;;;;4.70;2.22;;;17.20;62.10;;;;;;5108951;28;20432;-75
2021/05/26 11:36:09;;;;;;;5.07;2.50;;;17.00;61.70;;;;;;5069676;28;20177;-75
2021/05/26 11:38:34;;;;;;;3.88;2.38;;;17.20;62.50;;;;;;5096934;28;20024;-75
2021/05/26 11:41:01;;;;;;;5.97;2.33;;;17.50;61.30;;;;;;5065201;28;20042;-75
2021/05/26 11:43:31;;;;;;;2.78;2.30;;;17.80;59.90;;;;;;5094766;28;20043;-75
2021/05/26 11:46:04;;;;;;;5.57;2.55;;;17.80;59.90;;;;;;5099001;28;20023;-76
2021/05/26 11:48:30;;;;;;;5.53;3.03;;;17.60;59.10;;;;;;5081716;28;20020;-76
2021/05/26 11:50:56;;;;;;;9.43;2.70;;;17.40;59.00;;;;;;5077604;28;20154;-75
2021/05/26 11:53:21;;;;;;;4.75;2.90;;;17.40;59.30;;;;;;5095560;28;20024;-75
2021/05/26 11:55:50;;;;;;;7.30;2.78;;;17.60;59.40;;;;;;5095542;28;20435;-75
2021/05/26 11:58:33;;;;;;;4.97;3.03;;;17.90;58.80;;;;;;5077575;28;20024;-75
2021/05/26 12:01:08;;;;;;;9.50;3.47;;;18.30;58.00;;;;;;5097157;28;20035;-75
2021/05/26 12:03:34;;;;;;;4.72;2.40;;;18.50;57.70;;;;;;5076529;28;20024;-75
2021/05/26 12:06:01;;;;;;;6.07;3.20;;;18.40;58.10;;;;;;5095984;28;20020;-75
2021/05/26 12:08:40;;;;;;;6.25;3.10;;;18.20;57.30;;;;;;5078127;28;20031;-75
2021/05/26 12:11:11;;;;;;;6.60;3.40;;;17.90;57.60;;;;;;5095966;28;20362;-75
2021/05/26 12:13:39;;;;;;;9.70;3.05;;;17.70;58.60;;;;;;5098072;28;20027;-75
2021/05/26 12:16:07;;;;;;;5.87;2.90;;;17.80;59.50;;;;;;5116178;28;20055;-75
2021/05/26 12:18:34;;;;;;;5.05;2.60;;;18.10;58.50;;;;;;5116163;28;20426;-75
2021/05/26 12:21:00;;;;;;;9.52;3.53;;;18.10;58.10;;;;;;5099520;28;20089;-75
2021/05/26 12:23:59;;;;;;;7.47;3.22;;;18.00;58.90;;;;;;5060929;28;20024;-75
2021/05/26 12:26:34;;;;;;;8.05;3.65;;;18.00;60.30;;;;;;5081211;28;20020;-74
2021/05/26 12:29:08;;;;;;;6.38;3.10;;;18.20;59.30;;;;;;5095311;28;20431;-74
2021/05/26 12:31:36;;;;;;;6.28;2.53;;;18.20;57.60;;;;;;5077117;28;20085;-74
2021/05/26 12:34:02;;;;;;;8.40;3.30;;;18.00;57.20;;;;;;5080896;28;20032;-74
2021/05/26 12:36:30;;;;;;;7.72;3.22;;;17.80;58.80;;;;;;5097423;28;20062;-74
2021/05/26 12:39:05;;;;;;;6.60;2.72;;;17.60;59.10;;;;;;5097842;28;20024;-74
2021/05/26 12:41:36;;;;;;;5.68;2.30;;;17.40;60.70;;;;;;5097631;28;20032;-74
2021/05/26 12:44:08;;;;;;;6.75;2.00;;;17.40;59.30;;;;;;5114667;28;20048;-74
2021/05/26 12:46:41;;;;;;;5.55;1.90;;;17.60;56.70;;;;;;5097173;28;20383;-74
2021/05/26 12:49:32;;;;;;;7.15;2.40;;;17.80;54.60;;;;;;5097229;28;20020;-74
2021/05/26 12:52:14;;;;;;;5.47;1.85;;;17.90;55.20;;;;;;5115560;28;20031;-74